Amr R — XUAX5 — position and weather

sailwx.info

Track history (hours):
 
Tides and Currents Weather Stations Pressure Air Temp Water Temp Dewpoint Dewpoint Depression Visibility Wind Speed Wind Dir Waves Ship Positions

Amr R

Last reported at 2015-Mar-22 02:17 UTC. Time now 2015-Mar-29 09:27 UTC.
Position N 40°55' E 028°48'.

Length 130 m; draft 7.8 m.

Type: Cargo ship. MMSI: 514427000.

Date/timePositionNaut miles runAvg speedWind from/ knotsBaromVisibWave heightAir tempDewpointWater temp
2015-Mar-22 02:17N 40°55' E 028°48'6 7.9
2015-Mar-22 01:33N 40°57' E 028°55'22 1.6
2015-Mar-21 11:18N 41°18' E 029°05'6 7.1
2015-Mar-21 10:31N 41°22' E 029°10'13 6.8
2015-Mar-21 08:33N 41°30' E 029°24'8 6.5
2015-Mar-21 07:22N 41°34' E 029°33'401 7.8
2015-Mar-19 04:14N 44°33' E 037°44'8 8.2
2015-Mar-19 03:17N 44°40' E 037°51'5 5.4
2015-Mar-19 02:25N 44°43' E 037°47'0 0.0
2015-Mar-19 01:21N 44°43' E 037°47'  
2015-Mar-13 15:04N 44°39' E 037°52'5 7.7
2015-Mar-13 14:26N 44°35' E 037°56'1 0.1
2015-Mar-13 06:07N 44°35' E 037°57'0 0.0
2015-Mar-12 19:32N 44°35' E 037°57'0 0.0
2015-Mar-12 08:03N 44°35' E 037°57'0 0.0
2015-Mar-12 06:07N 44°35' E 037°57'  
Track history (hours):
 
Tides and Currents Weather Stations Pressure Air Temp Water Temp Dewpoint Dewpoint Depression Visibility Wind Speed Wind Dir Waves Ship Positions

Amr R

Last reported at 2015-Mar-22 02:17 UTC. Time now 2015-Mar-29 09:27 UTC.
Position N 40°55' E 028°48'.

Length 130 m; draft 7.8 m.

Type: Cargo ship. MMSI: 514427000.

Date/timePositionNaut miles runAvg speedWind from/ knotsBaromVisibWave heightAir tempDewpointWater temp
2015-Mar-22 02:17N 40°55' E 028°48'6 7.9
2015-Mar-22 01:33N 40°57' E 028°55'22 1.6
2015-Mar-21 11:18N 41°18' E 029°05'6 7.1
2015-Mar-21 10:31N 41°22' E 029°10'13 6.8
2015-Mar-21 08:33N 41°30' E 029°24'8 6.5
2015-Mar-21 07:22N 41°34' E 029°33'401 7.8
2015-Mar-19 04:14N 44°33' E 037°44'8 8.2
2015-Mar-19 03:17N 44°40' E 037°51'5 5.4
2015-Mar-19 02:25N 44°43' E 037°47'0 0.0
2015-Mar-19 01:21N 44°43' E 037°47'  
2015-Mar-13 15:04N 44°39' E 037°52'5 7.7
2015-Mar-13 14:26N 44°35' E 037°56'1 0.1
2015-Mar-13 06:07N 44°35' E 037°57'0 0.0
2015-Mar-12 19:32N 44°35' E 037°57'0 0.0
2015-Mar-12 08:03N 44°35' E 037°57'0 0.0
2015-Mar-12 06:07N 44°35' E 037°57'  

Dump ship's entire track history